sensor_id;sensor_type;location;lat;lon;timestamp;pressure;altitude;pressure_sealevel;temperature;humidity
73671;BME280;61968;48.178;11.566;2023-05-08T00:01:51;95985.91;;;16.28;39.10
73671;BME280;61968;48.178;11.566;2023-05-08T00:04:19;95995.50;;;16.29;38.90
73671;BME280;61968;48.178;11.566;2023-05-08T00:06:46;95985.09;;;16.28;38.86
73671;BME280;61968;48.178;11.566;2023-05-08T00:09:12;95990.69;;;16.21;39.02
73671;BME280;61968;48.178;11.566;2023-05-08T00:11:38;95991.22;;;16.18;39.13
73671;BME280;61968;48.178;11.566;2023-05-08T00:14:05;95994.91;;;16.17;39.01
73671;BME280;61968;48.178;11.566;2023-05-08T00:16:32;95992.25;;;16.17;39.00
73671;BME280;61968;48.178;11.566;2023-05-08T00:18:58;96000.25;;;16.12;38.90
73671;BME280;61968;48.178;11.566;2023-05-08T00:21:26;95985.84;;;16.13;39.08
73671;BME280;61968;48.178;11.566;2023-05-08T00:23:52;95996.22;;;16.09;39.03
73671;BME280;61968;48.178;11.566;2023-05-08T00:26:19;95999.72;;;16.20;38.73
73671;BME280;61968;48.178;11.566;2023-05-08T00:28:46;96001.31;;;16.16;39.01
73671;BME280;61968;48.178;11.566;2023-05-08T00:31:12;96011.72;;;16.13;38.92
73671;BME280;61968;48.178;11.566;2023-05-08T00:33:39;96007.19;;;16.13;38.90
73671;BME280;61968;48.178;11.566;2023-05-08T00:36:06;96003.69;;;16.07;38.93
73671;BME280;61968;48.178;11.566;2023-05-08T00:38:35;96005.00;;;16.05;39.12
73671;BME280;61968;48.178;11.566;2023-05-08T00:41:02;96009.28;;;16.06;39.22
73671;BME280;61968;48.178;11.566;2023-05-08T00:43:28;96006.84;;;16.04;39.21
73671;BME280;61968;48.178;11.566;2023-05-08T00:45:56;96006.56;;;16.01;39.23
73671;BME280;61968;48.178;11.566;2023-05-08T00:48:24;95994.03;;;16.01;39.17
73671;BME280;61968;48.178;11.566;2023-05-08T00:50:53;96002.03;;;16.01;39.19
73671;BME280;61968;48.178;11.566;2023-05-08T00:53:21;96001.75;;;15.98;39.18
73671;BME280;61968;48.178;11.566;2023-05-08T00:55:50;95997.22;;;15.98;39.23
73671;BME280;61968;48.178;11.566;2023-05-08T00:58:17;96001.75;;;15.98;39.22
73671;BME280;61968;48.178;11.566;2023-05-08T01:00:44;95994.84;;;15.97;39.40
73671;BME280;61968;48.178;11.566;2023-05-08T01:03:12;95995.88;;;15.96;39.24
73671;BME280;61968;48.178;11.566;2023-05-08T01:05:39;95992.91;;;15.92;39.30
73671;BME280;61968;48.178;11.566;2023-05-08T01:08:06;95996.88;;;15.90;39.29
73671;BME280;61968;48.178;11.566;2023-05-08T01:10:41;95992.63;;;15.89;39.26
73671;BME280;61968;48.178;11.566;2023-05-08T01:13:15;95998.47;;;15.85;39.22
73671;BME280;61968;48.178;11.566;2023-05-08T01:15:49;96008.56;;;15.83;39.21
73671;BME280;61968;48.178;11.566;2023-05-08T01:18:22;95998.97;;;15.82;39.44
73671;BME280;61968;48.178;11.566;2023-05-08T01:20:55;96005.91;;;15.83;39.37
73671;BME280;61968;48.178;11.566;2023-05-08T01:30:06;96010.63;;;15.71;39.83
73671;BME280;61968;48.178;11.566;2023-05-08T01:32:39;96012.72;;;15.69;39.43
73671;BME280;61968;48.178;11.566;2023-05-08T01:35:12;96025.25;;;15.63;39.54
73671;BME280;61968;48.178;11.566;2023-05-08T01:37:49;96029.78;;;15.68;39.59
73671;BME280;61968;48.178;11.566;2023-05-08T01:40:21;96037.22;;;15.66;39.30
73671;BME280;61968;48.178;11.566;2023-05-08T01:42:58;96034.53;;;15.61;39.74
73671;BME280;61968;48.178;11.566;2023-05-08T01:45:30;96028.44;;;15.66;39.45
73671;BME280;61968;48.178;11.566;2023-05-08T01:48:03;96036.16;;;15.62;39.32
73671;BME280;61968;48.178;11.566;2023-05-08T01:50:34;96042.03;;;15.64;39.58
73671;BME280;61968;48.178;11.566;2023-05-08T01:53:06;96039.59;;;15.57;39.59
73671;BME280;61968;48.178;11.566;2023-05-08T01:55:35;96045.72;;;15.58;39.44
73671;BME280;61968;48.178;11.566;2023-05-08T01:58:06;96046.72;;;15.52;39.60
73671;BME280;61968;48.178;11.566;2023-05-08T02:00:34;96048.84;;;15.50;39.45
73671;BME280;61968;48.178;11.566;2023-05-08T02:03:05;96043.78;;;15.48;39.63
73671;BME280;61968;48.178;11.566;2023-05-08T02:05:36;96046.44;;;15.48;39.67
73671;BME280;61968;48.178;11.566;2023-05-08T02:08:03;96044.31;;;15.50;39.47
73671;BME280;61968;48.178;11.566;2023-05-08T02:10:32;96047.78;;;15.51;39.46
73671;BME280;61968;48.178;11.566;2023-05-08T02:13:00;96047.25;;;15.49;39.43
73671;BME280;61968;48.178;11.566;2023-05-08T02:15:28;96052.53;;;15.44;39.57
73671;BME280;61968;48.178;11.566;2023-05-08T02:17:57;96047.44;;;15.42;39.59
73671;BME280;61968;48.178;11.566;2023-05-08T02:20:26;96056.28;;;15.48;39.49
73671;BME280;61968;48.178;11.566;2023-05-08T02:22:54;96051.44;;;15.45;39.73
73671;BME280;61968;48.178;11.566;2023-05-08T02:25:21;96054.59;;;15.36;39.54
73671;BME280;61968;48.178;11.566;2023-05-08T02:27:49;96047.91;;;15.34;39.41
73671;BME280;61968;48.178;11.566;2023-05-08T02:30:20;96044.38;;;15.28;39.31
73671;BME280;61968;48.178;11.566;2023-05-08T02:32:51;96047.28;;;15.27;39.49
73671;BME280;61968;48.178;11.566;2023-05-08T02:35:19;96050.47;;;15.24;39.41
73671;BME280;61968;48.178;11.566;2023-05-08T02:37:50;96049.88;;;15.16;39.47
73671;BME280;61968;48.178;11.566;2023-05-08T02:40:17;96052.22;;;15.13;39.25
73671;BME280;61968;48.178;11.566;2023-05-08T02:42:45;96055.59;;;15.08;39.44
73671;BME280;61968;48.178;11.566;2023-05-08T02:45:12;96057.75;;;15.06;39.52
73671;BME280;61968;48.178;11.566;2023-05-08T02:47:42;96056.91;;;15.06;39.53
73671;BME280;61968;48.178;11.566;2023-05-08T02:50:16;96058.03;;;15.10;39.29
73671;BME280;61968;48.178;11.566;2023-05-08T02:52:48;96058.28;;;15.08;39.34
73671;BME280;61968;48.178;11.566;2023-05-08T02:55:24;96052.66;;;15.05;39.18
73671;BME280;61968;48.178;11.566;2023-05-08T02:58:02;96058.41;;;14.96;39.38
73671;BME280;61968;48.178;11.566;2023-05-08T03:00:34;96057.06;;;14.94;39.53
73671;BME280;61968;48.178;11.566;2023-05-08T03:03:06;96063.75;;;14.96;39.34
73671;BME280;61968;48.178;11.566;2023-05-08T03:05:36;96058.75;;;15.00;39.28
73671;BME280;61968;48.178;11.566;2023-05-08T03:08:06;96063.19;;;14.94;39.35
73671;BME280;61968;48.178;11.566;2023-05-08T03:10:35;96064.75;;;14.90;39.19
73671;BME280;61968;48.178;11.566;2023-05-08T03:13:04;96062.34;;;14.89;39.02
73671;BME280;61968;48.178;11.566;2023-05-08T03:15:34;96062.28;;;14.84;39.10
73671;BME280;61968;48.178;11.566;2023-05-08T03:18:06;96059.50;;;14.73;38.86
73671;BME280;61968;48.178;11.566;2023-05-08T03:20:38;96060.09;;;14.81;38.90
73671;BME280;61968;48.178;11.566;2023-05-08T03:23:07;96059.25;;;14.75;38.86
73671;BME280;61968;48.178;11.566;2023-05-08T03:25:35;96059.44;;;14.68;38.94
73671;BME280;61968;48.178;11.566;2023-05-08T03:28:04;96058.56;;;14.63;38.87
73671;BME280;61968;48.178;11.566;2023-05-08T03:30:32;96066.00;;;14.61;39.04
73671;BME280;61968;48.178;11.566;2023-05-08T03:33:02;96059.94;;;14.65;38.94
73671;BME280;61968;48.178;11.566;2023-05-08T03:35:30;96071.06;;;14.62;38.85
73671;BME280;61968;48.178;11.566;2023-05-08T03:37:57;96068.72;;;14.66;38.61
73671;BME280;61968;48.178;11.566;2023-05-08T03:40:26;96064.38;;;14.60;38.76
73671;BME280;61968;48.178;11.566;2023-05-08T03:42:53;96070.19;;;14.57;38.73
73671;BME280;61968;48.178;11.566;2023-05-08T03:45:21;96065.44;;;14.59;38.78
73671;BME280;61968;48.178;11.566;2023-05-08T03:47:50;96070.28;;;14.62;38.76
73671;BME280;61968;48.178;11.566;2023-05-08T03:50:18;96068.09;;;14.59;38.93
73671;BME280;61968;48.178;11.566;2023-05-08T03:52:44;96078.69;;;14.54;38.90
73671;BME280;61968;48.178;11.566;2023-05-08T03:55:11;96077.50;;;14.44;39.11
73671;BME280;61968;48.178;11.566;2023-05-08T03:57:44;96078.00;;;14.41;38.92
73671;BME280;61968;48.178;11.566;2023-05-08T04:00:14;96078.25;;;14.40;38.90
73671;BME280;61968;48.178;11.566;2023-05-08T04:02:48;96075.81;;;14.38;39.12
73671;BME280;61968;48.178;11.566;2023-05-08T04:05:20;96084.75;;;14.32;39.15
73671;BME280;61968;48.178;11.566;2023-05-08T04:07:52;96088.59;;;14.36;38.85
73671;BME280;61968;48.178;11.566;2023-05-08T04:10:23;96092.72;;;14.32;39.05
73671;BME280;61968;48.178;11.566;2023-05-08T04:12:59;96089.84;;;14.34;39.02
73671;BME280;61968;48.178;11.566;2023-05-08T04:15:31;96089.38;;;14.37;38.71
73671;BME280;61968;48.178;11.566;2023-05-08T04:18:00;96097.91;;;14.39;38.40
73671;BME280;61968;48.178;11.566;2023-05-08T04:20:28;96097.56;;;14.35;38.48
73671;BME280;61968;48.178;11.566;2023-05-08T04:22:57;96096.63;;;14.24;38.46
73671;BME280;61968;48.178;11.566;2023-05-08T04:25:24;96097.09;;;14.38;38.07
73671;BME280;61968;48.178;11.566;2023-05-08T04:27:51;96105.22;;;14.32;38.30
73671;BME280;61968;48.178;11.566;2023-05-08T04:30:21;96103.06;;;14.12;38.73
73671;BME280;61968;48.178;11.566;2023-05-08T04:32:49;96107.28;;;14.08;38.77
73671;BME280;61968;48.178;11.566;2023-05-08T04:35:16;96107.63;;;13.94;38.63
73671;BME280;61968;48.178;11.566;2023-05-08T04:37:42;96111.16;;;13.83;43.47
73671;BME280;61968;48.178;11.566;2023-05-08T04:40:10;96112.03;;;14.39;42.32
73671;BME280;61968;48.178;11.566;2023-05-08T04:42:36;96115.03;;;14.65;39.91
73671;BME280;61968;48.178;11.566;2023-05-08T04:45:07;96108.31;;;14.84;40.79
73671;BME280;61968;48.178;11.566;2023-05-08T04:47:35;96112.84;;;15.06;41.03
73671;BME280;61968;48.178;11.566;2023-05-08T04:50:02;96114.72;;;15.27;41.24
73671;BME280;61968;48.178;11.566;2023-05-08T04:52:28;96113.38;;;15.57;40.57
73671;BME280;61968;48.178;11.566;2023-05-08T04:54:55;96121.28;;;15.74;39.50
73671;BME280;61968;48.178;11.566;2023-05-08T04:57:21;96132.88;;;15.90;38.90
73671;BME280;61968;48.178;11.566;2023-05-08T04:59:48;96130.06;;;16.01;36.31
73671;BME280;61968;48.178;11.566;2023-05-08T05:02:15;96129.50;;;15.67;36.11
73671;BME280;61968;48.178;11.566;2023-05-08T05:04:43;96132.41;;;15.38;36.24
73671;BME280;61968;48.178;11.566;2023-05-08T05:07:09;96125.25;;;15.17;36.80
73671;BME280;61968;48.178;11.566;2023-05-08T05:09:36;96133.03;;;15.02;37.07
73671;BME280;61968;48.178;11.566;2023-05-08T05:12:03;96134.22;;;14.89;37.11
73671;BME280;61968;48.178;11.566;2023-05-08T05:14:30;96138.59;;;14.78;37.24
73671;BME280;61968;48.178;11.566;2023-05-08T05:16:57;96140.06;;;14.69;37.24
73671;BME280;61968;48.178;11.566;2023-05-08T05:19:23;96141.56;;;14.60;37.46
73671;BME280;61968;48.178;11.566;2023-05-08T05:21:52;96149.16;;;14.51;37.54
73671;BME280;61968;48.178;11.566;2023-05-08T05:24:19;96151.38;;;14.37;37.95
73671;BME280;61968;48.178;11.566;2023-05-08T05:26:45;96152.97;;;14.38;38.15
73671;BME280;61968;48.178;11.566;2023-05-08T05:29:12;96151.09;;;14.39;37.60
73671;BME280;61968;48.178;11.566;2023-05-08T05:31:38;96147.47;;;14.28;37.97
73671;BME280;61968;48.178;11.566;2023-05-08T05:34:05;96155.94;;;14.25;38.02
73671;BME280;61968;48.178;11.566;2023-05-08T05:36:31;96162.72;;;14.16;38.22
73671;BME280;61968;48.178;11.566;2023-05-08T05:38:59;96162.06;;;14.09;38.15
73671;BME280;61968;48.178;11.566;2023-05-08T05:41:26;96162.47;;;14.00;38.45
73671;BME280;61968;48.178;11.566;2023-05-08T05:43:52;96158.19;;;13.99;38.51
73671;BME280;61968;48.178;11.566;2023-05-08T05:46:18;96163.19;;;13.96;38.75
73671;BME280;61968;48.178;11.566;2023-05-08T05:48:45;96161.59;;;13.95;38.62
73671;BME280;61968;48.178;11.566;2023-05-08T05:51:11;96169.72;;;13.88;38.52
73671;BME280;61968;48.178;11.566;2023-05-08T05:53:38;96172.53;;;13.98;38.35
73671;BME280;61968;48.178;11.566;2023-05-08T05:56:06;96171.22;;;13.84;38.39
73671;BME280;61968;48.178;11.566;2023-05-08T05:58:33;96172.13;;;13.73;38.43
73671;BME280;61968;48.178;11.566;2023-05-08T06:00:59;96178.47;;;13.72;38.75
73671;BME280;61968;48.178;11.566;2023-05-08T06:03:26;96179.44;;;13.66;39.00
73671;BME280;61968;48.178;11.566;2023-05-08T06:05:53;96175.97;;;13.65;38.78
73671;BME280;61968;48.178;11.566;2023-05-08T06:08:19;96174.53;;;13.74;38.80
73671;BME280;61968;48.178;11.566;2023-05-08T06:10:46;96180.41;;;13.76;39.12
73671;BME280;61968;48.178;11.566;2023-05-08T06:13:13;96176.38;;;13.74;39.33
73671;BME280;61968;48.178;11.566;2023-05-08T06:15:40;96173.47;;;13.75;39.72
73671;BME280;61968;48.178;11.566;2023-05-08T06:18:06;96171.16;;;13.79;39.44
73671;BME280;61968;48.178;11.566;2023-05-08T06:20:33;96179.03;;;13.74;39.49
73671;BME280;61968;48.178;11.566;2023-05-08T06:23:00;96182.66;;;13.68;40.13
73671;BME280;61968;48.178;11.566;2023-05-08T06:25:26;96184.41;;;13.62;39.53
73671;BME280;61968;48.178;11.566;2023-05-08T06:27:53;96182.50;;;13.57;40.00
73671;BME280;61968;48.178;11.566;2023-05-08T06:30:21;96181.75;;;13.62;40.00
73671;BME280;61968;48.178;11.566;2023-05-08T06:32:48;96185.53;;;13.66;39.98
73671;BME280;61968;48.178;11.566;2023-05-08T06:35:14;96188.63;;;13.75;39.88
73671;BME280;61968;48.178;11.566;2023-05-08T06:37:42;96186.84;;;13.80;39.64
73671;BME280;61968;48.178;11.566;2023-05-08T06:40:10;96188.13;;;13.78;39.34
73671;BME280;61968;48.178;11.566;2023-05-08T06:42:37;96186.16;;;13.85;39.29
73671;BME280;61968;48.178;11.566;2023-05-08T06:45:04;96187.66;;;13.81;40.02
73671;BME280;61968;48.178;11.566;2023-05-08T06:47:32;96178.47;;;13.72;39.98
73671;BME280;61968;48.178;11.566;2023-05-08T06:49:59;96194.66;;;13.70;40.38
73671;BME280;61968;48.178;11.566;2023-05-08T06:52:26;96187.88;;;13.63;40.33
73671;BME280;61968;48.178;11.566;2023-05-08T06:54:52;96198.03;;;13.66;40.09
73671;BME280;61968;48.178;11.566;2023-05-08T06:57:19;96196.53;;;13.70;39.82
73671;BME280;61968;48.178;11.566;2023-05-08T06:59:45;96198.22;;;13.76;39.81
73671;BME280;61968;48.178;11.566;2023-05-08T07:02:12;96199.94;;;13.82;39.65
73671;BME280;61968;48.178;11.566;2023-05-08T07:04:42;96200.53;;;13.72;39.39
73671;BME280;61968;48.178;11.566;2023-05-08T07:07:09;96207.06;;;13.81;39.46
73671;BME280;61968;48.178;11.566;2023-05-08T07:09:36;96205.25;;;13.82;39.45
73671;BME280;61968;48.178;11.566;2023-05-08T07:12:02;96202.72;;;13.75;39.45
73671;BME280;61968;48.178;11.566;2023-05-08T07:14:29;96202.00;;;13.80;39.69
73671;BME280;61968;48.178;11.566;2023-05-08T07:16:56;96208.22;;;13.86;39.63
73671;BME280;61968;48.178;11.566;2023-05-08T07:19:22;96201.69;;;13.93;39.07
73671;BME280;61968;48.178;11.566;2023-05-08T07:21:50;96208.22;;;14.02;38.25
73671;BME280;61968;48.178;11.566;2023-05-08T07:24:16;96205.72;;;13.96;38.88
73671;BME280;61968;48.178;11.566;2023-05-08T07:26:43;96210.00;;;13.97;38.63
73671;BME280;61968;48.178;11.566;2023-05-08T07:29:09;96209.91;;;13.92;38.82
73671;BME280;61968;48.178;11.566;2023-05-08T07:31:38;96205.31;;;13.87;39.08
73671;BME280;61968;48.178;11.566;2023-05-08T07:34:04;96221.84;;;13.89;39.30
73671;BME280;61968;48.178;11.566;2023-05-08T07:36:31;96213.97;;;13.94;38.85
73671;BME280;61968;48.178;11.566;2023-05-08T07:38:59;96208.22;;;14.02;37.95
73671;BME280;61968;48.178;11.566;2023-05-08T07:41:25;96211.47;;;14.04;37.99
73671;BME280;61968;48.178;11.566;2023-05-08T07:43:52;96215.88;;;13.99;38.33
73671;BME280;61968;48.178;11.566;2023-05-08T07:46:18;96214.81;;;13.83;39.03
73671;BME280;61968;48.178;11.566;2023-05-08T07:48:45;96210.41;;;13.89;38.96
73671;BME280;61968;48.178;11.566;2023-05-08T07:51:12;96217.22;;;13.85;38.86
73671;BME280;61968;48.178;11.566;2023-05-08T07:53:39;96215.41;;;13.85;39.01
73671;BME280;61968;48.178;11.566;2023-05-08T07:56:07;96219.06;;;13.84;39.04
73671;BME280;61968;48.178;11.566;2023-05-08T07:58:33;96214.81;;;13.83;38.96
73671;BME280;61968;48.178;11.566;2023-05-08T08:01:00;96218.06;;;13.85;39.25
73671;BME280;61968;48.178;11.566;2023-05-08T08:03:27;96213.97;;;13.94;39.00
73671;BME280;61968;48.178;11.566;2023-05-08T08:05:54;96216.56;;;14.06;38.92
73671;BME280;61968;48.178;11.566;2023-05-08T08:08:20;96215.34;;;14.14;38.80
73671;BME280;61968;48.178;11.566;2023-05-08T08:10:47;96211.78;;;14.08;38.44
73671;BME280;61968;48.178;11.566;2023-05-08T08:13:14;96218.06;;;14.02;38.51
73671;BME280;61968;48.178;11.566;2023-05-08T08:15:41;96219.91;;;14.01;38.68
73671;BME280;61968;48.178;11.566;2023-05-08T08:18:08;96221.38;;;14.09;38.70
73671;BME280;61968;48.178;11.566;2023-05-08T08:20:34;96226.53;;;14.16;38.51
73671;BME280;61968;48.178;11.566;2023-05-08T08:23:01;96218.25;;;14.12;38.40
73671;BME280;61968;48.178;11.566;2023-05-08T08:25:27;96217.34;;;14.23;37.56
73671;BME280;61968;48.178;11.566;2023-05-08T08:27:54;96216.06;;;14.26;37.61
73671;BME280;61968;48.178;11.566;2023-05-08T08:30:22;96219.94;;;14.18;38.04
73671;BME280;61968;48.178;11.566;2023-05-08T08:32:48;96224.94;;;14.32;37.96
73671;BME280;61968;48.178;11.566;2023-05-08T08:35:15;96221.16;;;14.27;37.92
73671;BME280;61968;48.178;11.566;2023-05-08T08:37:41;96223.47;;;14.24;37.92
73671;BME280;61968;48.178;11.566;2023-05-08T08:40:08;96224.84;;;14.26;37.83
73671;BME280;61968;48.178;11.566;2023-05-08T08:42:35;96226.22;;;14.29;38.20
73671;BME280;61968;48.178;11.566;2023-05-08T08:45:01;96223.66;;;14.34;38.27
73671;BME280;61968;48.178;11.566;2023-05-08T08:47:34;96221.91;;;14.40;38.13
73671;BME280;61968;48.178;11.566;2023-05-08T08:50:03;96224.56;;;14.40;38.15
73671;BME280;61968;48.178;11.566;2023-05-08T08:52:31;96222.03;;;14.33;37.78
73671;BME280;61968;48.178;11.566;2023-05-08T08:55:01;96229.31;;;14.38;38.23
73671;BME280;61968;48.178;11.566;2023-05-08T08:57:31;96221.16;;;14.44;37.79
73671;BME280;61968;48.178;11.566;2023-05-08T08:59:58;96223.50;;;14.41;37.96
73671;BME280;61968;48.178;11.566;2023-05-08T09:02:29;96226.44;;;14.39;37.89
73671;BME280;61968;48.178;11.566;2023-05-08T09:04:56;96221.75;;;14.46;37.67
73671;BME280;61968;48.178;11.566;2023-05-08T09:07:23;96219.66;;;14.48;37.65
73671;BME280;61968;48.178;11.566;2023-05-08T09:09:51;96224.72;;;14.50;37.72
73671;BME280;61968;48.178;11.566;2023-05-08T09:12:18;96218.50;;;14.44;38.11
73671;BME280;61968;48.178;11.566;2023-05-08T09:14:45;96222.63;;;14.52;37.55
73671;BME280;61968;48.178;11.566;2023-05-08T09:17:11;96218.69;;;14.55;37.62
73671;BME280;61968;48.178;11.566;2023-05-08T09:19:39;96223.75;;;14.56;38.36
73671;BME280;61968;48.178;11.566;2023-05-08T09:22:06;96227.19;;;14.57;38.04
73671;BME280;61968;48.178;11.566;2023-05-08T09:24:55;96228.97;;;14.68;37.68
73671;BME280;61968;48.178;11.566;2023-05-08T09:27:23;96211.72;;;14.70;37.66
73671;BME280;61968;48.178;11.566;2023-05-08T09:29:58;96224.75;;;14.72;37.73
73671;BME280;61968;48.178;11.566;2023-05-08T09:32:25;96217.97;;;14.81;37.77
73671;BME280;61968;48.178;11.566;2023-05-08T09:34:53;96223.47;;;14.75;37.92
73671;BME280;61968;48.178;11.566;2023-05-08T09:37:20;96221.69;;;14.80;37.46
73671;BME280;61968;48.178;11.566;2023-05-08T09:39:46;96220.41;;;14.83;37.80
73671;BME280;61968;48.178;11.566;2023-05-08T09:42:14;96225.94;;;14.81;37.81
73671;BME280;61968;48.178;11.566;2023-05-08T09:44:44;96220.13;;;14.84;37.76
73671;BME280;61968;48.178;11.566;2023-05-08T09:47:12;96221.31;;;14.93;37.71
73671;BME280;61968;48.178;11.566;2023-05-08T09:49:39;96223.50;;;14.96;37.62
73671;BME280;61968;48.178;11.566;2023-05-08T09:52:07;96222.47;;;14.98;37.67
73671;BME280;61968;48.178;11.566;2023-05-08T09:54:40;96225.66;;;15.00;37.82
73671;BME280;61968;48.178;11.566;2023-05-08T09:57:10;96225.16;;;15.03;37.89
73671;BME280;61968;48.178;11.566;2023-05-08T09:59:38;96229.69;;;15.02;38.11
73671;BME280;61968;48.178;11.566;2023-05-08T10:02:09;96226.00;;;15.03;38.21
73671;BME280;61968;48.178;11.566;2023-05-08T10:04:37;96223.06;;;15.05;38.13
73671;BME280;61968;48.178;11.566;2023-05-08T10:07:03;96217.75;;;15.05;38.79
73671;BME280;61968;48.178;11.566;2023-05-08T10:09:31;96220.09;;;15.18;37.73
73671;BME280;61968;48.178;11.566;2023-05-08T10:11:57;96219.09;;;15.24;38.06
73671;BME280;61968;48.178;11.566;2023-05-08T10:14:24;96217.75;;;15.22;37.97
73671;BME280;61968;48.178;11.566;2023-05-08T10:16:51;96228.47;;;15.10;38.37
73671;BME280;61968;48.178;11.566;2023-05-08T10:19:21;96222.88;;;15.28;37.80
73671;BME280;61968;48.178;11.566;2023-05-08T10:21:48;96218.94;;;15.36;37.73
73671;BME280;61968;48.178;11.566;2023-05-08T10:24:17;96216.75;;;15.28;38.08
73671;BME280;61968;48.178;11.566;2023-05-08T10:26:51;96211.84;;;15.20;38.58
73671;BME280;61968;48.178;11.566;2023-05-08T10:32:08;96213.47;;;15.43;38.16
73671;BME280;61968;48.178;11.566;2023-05-08T10:34:39;96215.78;;;15.39;37.37
73671;BME280;61968;48.178;11.566;2023-05-08T10:37:08;96209.84;;;15.54;38.33
73671;BME280;61968;48.178;11.566;2023-05-08T10:39:35;96213.63;;;15.36;37.70
73671;BME280;61968;48.178;11.566;2023-05-08T10:42:03;96215.13;;;15.49;37.67
73671;BME280;61968;48.178;11.566;2023-05-08T10:44:30;96211.66;;;15.48;37.98
73671;BME280;61968;48.178;11.566;2023-05-08T10:47:02;96213.31;;;15.54;38.18
73671;BME280;61968;48.178;11.566;2023-05-08T10:49:47;96210.97;;;15.58;39.16
73671;BME280;61968;48.178;11.566;2023-05-08T10:52:18;96211.97;;;15.52;38.58
73671;BME280;61968;48.178;11.566;2023-05-08T10:55:08;96206.22;;;15.65;38.56
73671;BME280;61968;48.178;11.566;2023-05-08T10:57:39;96209.53;;;15.77;38.21
73671;BME280;61968;48.178;11.566;2023-05-08T11:00:07;96206.31;;;15.75;38.43
73671;BME280;61968;48.178;11.566;2023-05-08T11:02:34;96208.03;;;15.86;38.03
73671;BME280;61968;48.178;11.566;2023-05-08T11:05:17;96203.81;;;15.91;37.22
73671;BME280;61968;48.178;11.566;2023-05-08T11:07:54;96202.28;;;15.95;37.69
73671;BME280;61968;48.178;11.566;2023-05-08T11:10:28;96198.66;;;15.79;37.73
73671;BME280;61968;48.178;11.566;2023-05-08T11:12:57;96201.97;;;15.91;37.90
73671;BME280;61968;48.178;11.566;2023-05-08T11:15:35;96201.03;;;15.80;37.79
73671;BME280;61968;48.178;11.566;2023-05-08T11:18:03;96197.53;;;15.75;37.93
73671;BME280;61968;48.178;11.566;2023-05-08T11:20:37;96195.97;;;15.79;37.82
73671;BME280;61968;48.178;11.566;2023-05-08T11:23:22;96197.34;;;15.81;38.15
73671;BME280;61968;48.178;11.566;2023-05-08T11:25:57;96194.56;;;15.98;38.06
73671;BME280;61968;48.178;11.566;2023-05-08T11:28:27;96187.56;;;16.19;38.25
73671;BME280;61968;48.178;11.566;2023-05-08T11:30:54;96185.56;;;16.42;39.03
73671;BME280;61968;48.178;11.566;2023-05-08T11:33:21;96193.00;;;16.72;38.62
73671;BME280;61968;48.178;11.566;2023-05-08T11:35:50;96184.22;;;16.76;38.72
73671;BME280;61968;48.178;11.566;2023-05-08T11:38:22;96185.91;;;16.93;37.51
73671;BME280;61968;48.178;11.566;2023-05-08T11:40:57;96179.56;;;17.04;38.41
73671;BME280;61968;48.178;11.566;2023-05-08T11:43:43;96183.88;;;17.15;37.95
73671;BME280;61968;48.178;11.566;2023-05-08T11:46:15;96182.63;;;17.33;37.46
73671;BME280;61968;48.178;11.566;2023-05-08T11:48:42;96188.28;;;17.47;37.15
73671;BME280;61968;48.178;11.566;2023-05-08T11:51:09;96178.97;;;17.55;37.11
73671;BME280;61968;48.178;11.566;2023-05-08T11:53:38;96188.06;;;17.59;37.21
73671;BME280;61968;48.178;11.566;2023-05-08T11:56:05;96184.34;;;17.75;36.85
73671;BME280;61968;48.178;11.566;2023-05-08T11:58:33;96183.28;;;17.81;36.62
73671;BME280;61968;48.178;11.566;2023-05-08T12:01:01;96189.72;;;17.96;35.69
73671;BME280;61968;48.178;11.566;2023-05-08T12:03:27;96199.91;;;17.94;35.92
73671;BME280;61968;48.178;11.566;2023-05-08T12:05:55;96198.81;;;17.95;35.33
73671;BME280;61968;48.178;11.566;2023-05-08T12:08:23;96194.25;;;17.95;34.39
73671;BME280;61968;48.178;11.566;2023-05-08T12:10:50;96196.66;;;17.86;34.64
73671;BME280;61968;48.178;11.566;2023-05-08T12:13:19;96196.38;;;17.78;34.82
73671;BME280;61968;48.178;11.566;2023-05-08T12:15:49;96189.44;;;17.82;34.25
73671;BME280;61968;48.178;11.566;2023-05-08T12:18:17;96199.84;;;17.73;35.05
73671;BME280;61968;48.178;11.566;2023-05-08T12:20:44;96192.09;;;17.66;35.45
73671;BME280;61968;48.178;11.566;2023-05-08T12:23:11;96190.72;;;17.59;35.55
73671;BME280;61968;48.178;11.566;2023-05-08T12:25:39;96196.88;;;17.64;34.94
73671;BME280;61968;48.178;11.566;2023-05-08T12:28:05;96194.47;;;17.63;35.39
73671;BME280;61968;48.178;11.566;2023-05-08T12:30:32;96193.94;;;17.66;35.41
73671;BME280;61968;48.178;11.566;2023-05-08T12:33:01;96192.63;;;17.74;35.47
73671;BME280;61968;48.178;11.566;2023-05-08T12:35:28;96186.75;;;17.77;35.11
73671;BME280;61968;48.178;11.566;2023-05-08T12:37:59;96193.72;;;17.83;35.52
73671;BME280;61968;48.178;11.566;2023-05-08T12:40:27;96196.38;;;17.83;34.76
73671;BME280;61968;48.178;11.566;2023-05-08T12:42:54;96191.03;;;17.83;34.86
73671;BME280;61968;48.178;11.566;2023-05-08T12:45:23;96193.19;;;17.86;35.13
73671;BME280;61968;48.178;11.566;2023-05-08T12:47:50;96198.25;;;17.82;32.86
73671;BME280;61968;48.178;11.566;2023-05-08T12:50:19;96188.91;;;17.85;34.41
73671;BME280;61968;48.178;11.566;2023-05-08T12:52:46;96193.97;;;17.76;35.15
73671;BME280;61968;48.178;11.566;2023-05-08T12:55:23;96199.59;;;17.80;35.49
73671;BME280;61968;48.178;11.566;2023-05-08T12:57:58;96189.97;;;17.79;35.11
73671;BME280;61968;48.178;11.566;2023-05-08T13:00:25;96183.00;;;17.73;35.42
73671;BME280;61968;48.178;11.566;2023-05-08T13:02:59;96184.88;;;17.77;35.04
73671;BME280;61968;48.178;11.566;2023-05-08T13:05:27;96187.53;;;17.77;35.51
73671;BME280;61968;48.178;11.566;2023-05-08T13:07:58;96182.72;;;17.74;35.07